sensor_id;sensor_type;location;lat;lon;timestamp;temperature;humidity
10472;DHT22;5283;48.876;8.962;2023-02-01T00:00:27;4.90;99.90
10472;DHT22;5283;48.876;8.962;2023-02-01T00:02:54;4.90;99.90
10472;DHT22;5283;48.876;8.962;2023-02-01T00:05:21;4.90;99.90
10472;DHT22;5283;48.876;8.962;2023-02-01T00:07:48;4.90;99.90
10472;DHT22;5283;48.876;8.962;2023-02-01T00:10:15;4.90;99.90
10472;DHT22;5283;48.876;8.962;2023-02-01T00:12:43;4.80;99.90
10472;DHT22;5283;48.876;8.962;2023-02-01T00:15:09;4.80;99.90
10472;DHT22;5283;48.876;8.962;2023-02-01T00:17:36;4.80;99.90
10472;DHT22;5283;48.876;8.962;2023-02-01T00:20:03;4.80;99.90
10472;DHT22;5283;48.876;8.962;2023-02-01T00:22:30;4.80;99.90
10472;DHT22;5283;48.876;8.962;2023-02-01T00:24:56;4.80;99.90
10472;DHT22;5283;48.876;8.962;2023-02-01T00:27:23;4.80;99.90
10472;DHT22;5283;48.876;8.962;2023-02-01T00:29:50;4.80;99.90
10472;DHT22;5283;48.876;8.962;2023-02-01T00:32:16;4.80;99.90
10472;DHT22;5283;48.876;8.962;2023-02-01T00:34:43;4.80;99.90
10472;DHT22;5283;48.876;8.962;2023-02-01T00:37:10;4.80;99.90
10472;DHT22;5283;48.876;8.962;2023-02-01T00:39:37;4.80;99.90
10472;DHT22;5283;48.876;8.962;2023-02-01T00:42:03;4.80;99.90
10472;DHT22;5283;48.876;8.962;2023-02-01T00:44:30;4.80;99.90
10472;DHT22;5283;48.876;8.962;2023-02-01T00:47:00;4.80;99.90
10472;DHT22;5283;48.876;8.962;2023-02-01T00:49:28;4.80;99.90
10472;DHT22;5283;48.876;8.962;2023-02-01T00:51:55;4.70;99.90
10472;DHT22;5283;48.876;8.962;2023-02-01T00:54:22;4.70;99.90
10472;DHT22;5283;48.876;8.962;2023-02-01T00:56:49;4.70;99.90
10472;DHT22;5283;48.876;8.962;2023-02-01T00:59:15;4.70;99.90
10472;DHT22;5283;48.876;8.962;2023-02-01T01:01:42;4.70;99.90
10472;DHT22;5283;48.876;8.962;2023-02-01T01:04:09;4.70;99.90
10472;DHT22;5283;48.876;8.962;2023-02-01T01:06:36;4.70;99.90
10472;DHT22;5283;48.876;8.962;2023-02-01T01:09:05;4.60;99.90
10472;DHT22;5283;48.876;8.962;2023-02-01T01:11:34;4.60;99.90
10472;DHT22;5283;48.876;8.962;2023-02-01T01:14:02;4.50;99.90
10472;DHT22;5283;48.876;8.962;2023-02-01T01:16:30;4.50;99.90
10472;DHT22;5283;48.876;8.962;2023-02-01T01:18:57;4.40;99.90
10472;DHT22;5283;48.876;8.962;2023-02-01T01:21:25;4.40;99.90
10472;DHT22;5283;48.876;8.962;2023-02-01T01:23:52;4.40;99.90
10472;DHT22;5283;48.876;8.962;2023-02-01T01:26:24;4.40;99.90
10472;DHT22;5283;48.876;8.962;2023-02-01T01:28:51;4.40;99.90
10472;DHT22;5283;48.876;8.962;2023-02-01T01:31:19;4.50;99.90
10472;DHT22;5283;48.876;8.962;2023-02-01T01:33:51;4.50;99.90
10472;DHT22;5283;48.876;8.962;2023-02-01T01:36:19;4.50;99.90
10472;DHT22;5283;48.876;8.962;2023-02-01T01:38:46;4.50;99.90
10472;DHT22;5283;48.876;8.962;2023-02-01T01:41:19;4.50;99.90
10472;DHT22;5283;48.876;8.962;2023-02-01T01:43:56;4.40;99.90
10472;DHT22;5283;48.876;8.962;2023-02-01T01:46:28;4.40;99.90
10472;DHT22;5283;48.876;8.962;2023-02-01T01:49:08;4.40;99.90
10472;DHT22;5283;48.876;8.962;2023-02-01T01:51:50;4.40;99.90
10472;DHT22;5283;48.876;8.962;2023-02-01T01:54:22;4.40;99.90
10472;DHT22;5283;48.876;8.962;2023-02-01T01:56:55;4.40;99.90
10472;DHT22;5283;48.876;8.962;2023-02-01T01:59:24;4.50;99.90
10472;DHT22;5283;48.876;8.962;2023-02-01T02:01:51;4.50;99.90
10472;DHT22;5283;48.876;8.962;2023-02-01T02:04:19;4.70;99.90
10472;DHT22;5283;48.876;8.962;2023-02-01T02:06:52;4.80;99.90
10472;DHT22;5283;48.876;8.962;2023-02-01T02:09:22;4.80;99.90
10472;DHT22;5283;48.876;8.962;2023-02-01T02:11:48;4.90;99.90
10472;DHT22;5283;48.876;8.962;2023-02-01T02:14:17;4.90;99.90
10472;DHT22;5283;48.876;8.962;2023-02-01T02:25:47;4.90;99.90
10472;DHT22;5283;48.876;8.962;2023-02-01T02:37:32;4.70;99.90
10472;DHT22;5283;48.876;8.962;2023-02-01T02:40:11;4.60;99.90
10472;DHT22;5283;48.876;8.962;2023-02-01T02:54:31;4.30;99.90
10472;DHT22;5283;48.876;8.962;2023-02-01T02:57:31;4.20;99.90
10472;DHT22;5283;48.876;8.962;2023-02-01T03:00:20;4.20;99.90
10472;DHT22;5283;48.876;8.962;2023-02-01T03:03:06;4.20;99.90
10472;DHT22;5283;48.876;8.962;2023-02-01T03:05:51;4.70;99.90
10472;DHT22;5283;48.876;8.962;2023-02-01T03:08:23;4.80;99.90
10472;DHT22;5283;48.876;8.962;2023-02-01T03:11:05;4.80;99.90
10472;DHT22;5283;48.876;8.962;2023-02-01T03:16:24;4.80;99.90
10472;DHT22;5283;48.876;8.962;2023-02-01T03:21:50;4.80;99.90
10472;DHT22;5283;48.876;8.962;2023-02-01T03:24:37;4.90;99.90
10472;DHT22;5283;48.876;8.962;2023-02-01T03:30:06;4.90;99.90
10472;DHT22;5283;48.876;8.962;2023-02-01T03:32:38;4.90;99.90
10472;DHT22;5283;48.876;8.962;2023-02-01T03:38:52;5.00;99.90
10472;DHT22;5283;48.876;8.962;2023-02-01T03:41:27;5.10;99.90
10472;DHT22;5283;48.876;8.962;2023-02-01T03:44:02;5.10;99.90
10472;DHT22;5283;48.876;8.962;2023-02-01T03:46:39;5.00;99.90
10472;DHT22;5283;48.876;8.962;2023-02-01T03:49:10;5.10;99.90
10472;DHT22;5283;48.876;8.962;2023-02-01T03:51:38;5.10;99.90
10472;DHT22;5283;48.876;8.962;2023-02-01T03:54:11;5.10;99.90
10472;DHT22;5283;48.876;8.962;2023-02-01T03:56:42;5.10;99.90
10472;DHT22;5283;48.876;8.962;2023-02-01T03:59:11;5.10;99.90
10472;DHT22;5283;48.876;8.962;2023-02-01T04:01:38;5.00;99.90
10472;DHT22;5283;48.876;8.962;2023-02-01T04:04:05;5.10;99.90
10472;DHT22;5283;48.876;8.962;2023-02-01T04:06:32;5.10;99.90
10472;DHT22;5283;48.876;8.962;2023-02-01T04:08:59;5.10;99.90
10472;DHT22;5283;48.876;8.962;2023-02-01T04:11:25;5.10;99.90
10472;DHT22;5283;48.876;8.962;2023-02-01T04:13:53;5.10;99.90
10472;DHT22;5283;48.876;8.962;2023-02-01T04:16:20;5.10;99.90
10472;DHT22;5283;48.876;8.962;2023-02-01T04:18:47;5.10;99.90
10472;DHT22;5283;48.876;8.962;2023-02-01T04:21:13;5.10;99.90
10472;DHT22;5283;48.876;8.962;2023-02-01T04:23:40;5.10;99.90
10472;DHT22;5283;48.876;8.962;2023-02-01T04:26:07;5.10;99.90
10472;DHT22;5283;48.876;8.962;2023-02-01T04:28:33;5.10;99.90
10472;DHT22;5283;48.876;8.962;2023-02-01T04:31:00;5.00;99.90
10472;DHT22;5283;48.876;8.962;2023-02-01T04:33:27;5.10;99.90
10472;DHT22;5283;48.876;8.962;2023-02-01T04:35:54;5.10;99.90
10472;DHT22;5283;48.876;8.962;2023-02-01T04:38:20;5.10;99.90
10472;DHT22;5283;48.876;8.962;2023-02-01T04:40:47;5.20;99.90
10472;DHT22;5283;48.876;8.962;2023-02-01T04:43:16;5.30;99.90
10472;DHT22;5283;48.876;8.962;2023-02-01T04:45:48;5.30;99.90
10472;DHT22;5283;48.876;8.962;2023-02-01T04:48:15;5.10;99.90
10472;DHT22;5283;48.876;8.962;2023-02-01T04:50:43;4.90;99.90
10472;DHT22;5283;48.876;8.962;2023-02-01T04:53:15;4.80;99.90
10472;DHT22;5283;48.876;8.962;2023-02-01T04:55:42;4.80;99.90
10472;DHT22;5283;48.876;8.962;2023-02-01T04:58:10;4.80;99.90
10472;DHT22;5283;48.876;8.962;2023-02-01T05:00:37;4.80;99.90
10472;DHT22;5283;48.876;8.962;2023-02-01T05:03:04;4.80;99.90
10472;DHT22;5283;48.876;8.962;2023-02-01T05:05:31;4.80;99.90
10472;DHT22;5283;48.876;8.962;2023-02-01T05:07:57;4.80;99.90
10472;DHT22;5283;48.876;8.962;2023-02-01T05:10:24;4.80;99.90
10472;DHT22;5283;48.876;8.962;2023-02-01T05:12:51;4.90;99.90
10472;DHT22;5283;48.876;8.962;2023-02-01T05:15:36;5.00;99.90
10472;DHT22;5283;48.876;8.962;2023-02-01T05:18:03;4.90;99.90
10472;DHT22;5283;48.876;8.962;2023-02-01T05:20:30;4.90;99.90
10472;DHT22;5283;48.876;8.962;2023-02-01T05:22:57;4.90;99.90
10472;DHT22;5283;48.876;8.962;2023-02-01T05:25:23;4.90;99.90
10472;DHT22;5283;48.876;8.962;2023-02-01T05:27:50;4.90;99.90
10472;DHT22;5283;48.876;8.962;2023-02-01T05:30:17;4.90;99.90
10472;DHT22;5283;48.876;8.962;2023-02-01T05:32:44;4.90;99.90
10472;DHT22;5283;48.876;8.962;2023-02-01T05:35:10;5.00;99.90
10472;DHT22;5283;48.876;8.962;2023-02-01T05:37:37;5.00;99.90
10472;DHT22;5283;48.876;8.962;2023-02-01T05:40:04;5.00;99.90
10472;DHT22;5283;48.876;8.962;2023-02-01T05:42:31;5.00;99.90
10472;DHT22;5283;48.876;8.962;2023-02-01T05:44:57;5.00;99.90
10472;DHT22;5283;48.876;8.962;2023-02-01T05:47:24;5.00;99.90
10472;DHT22;5283;48.876;8.962;2023-02-01T05:49:51;4.80;99.90
10472;DHT22;5283;48.876;8.962;2023-02-01T05:52:17;4.80;99.90
10472;DHT22;5283;48.876;8.962;2023-02-01T05:54:46;4.70;99.90
10472;DHT22;5283;48.876;8.962;2023-02-01T05:57:14;4.70;99.90
10472;DHT22;5283;48.876;8.962;2023-02-01T05:59:41;4.70;99.90
10472;DHT22;5283;48.876;8.962;2023-02-01T06:02:08;4.70;99.90
10472;DHT22;5283;48.876;8.962;2023-02-01T06:04:36;4.80;99.90
10472;DHT22;5283;48.876;8.962;2023-02-01T06:07:03;4.80;99.90
10472;DHT22;5283;48.876;8.962;2023-02-01T06:09:29;4.90;99.90
10472;DHT22;5283;48.876;8.962;2023-02-01T06:11:56;4.90;99.90
10472;DHT22;5283;48.876;8.962;2023-02-01T06:14:24;4.90;99.90
10472;DHT22;5283;48.876;8.962;2023-02-01T06:16:50;4.90;99.90
10472;DHT22;5283;48.876;8.962;2023-02-01T06:19:17;4.90;99.90
10472;DHT22;5283;48.876;8.962;2023-02-01T06:21:44;5.00;99.90
10472;DHT22;5283;48.876;8.962;2023-02-01T06:24:11;5.00;99.90
10472;DHT22;5283;48.876;8.962;2023-02-01T06:26:38;5.00;99.90
10472;DHT22;5283;48.876;8.962;2023-02-01T06:29:07;5.00;99.90
10472;DHT22;5283;48.876;8.962;2023-02-01T06:31:33;5.00;99.90
10472;DHT22;5283;48.876;8.962;2023-02-01T06:34:00;5.00;99.90
10472;DHT22;5283;48.876;8.962;2023-02-01T06:36:27;5.00;99.90
10472;DHT22;5283;48.876;8.962;2023-02-01T06:38:53;5.00;99.90
10472;DHT22;5283;48.876;8.962;2023-02-01T06:41:23;5.00;99.90
10472;DHT22;5283;48.876;8.962;2023-02-01T06:43:50;5.00;99.90
10472;DHT22;5283;48.876;8.962;2023-02-01T06:46:17;5.00;99.90
10472;DHT22;5283;48.876;8.962;2023-02-01T06:48:44;5.00;99.90
10472;DHT22;5283;48.876;8.962;2023-02-01T06:51:21;5.10;99.90
10472;DHT22;5283;48.876;8.962;2023-02-01T06:53:48;5.10;99.90
10472;DHT22;5283;48.876;8.962;2023-02-01T06:56:15;5.10;99.90
10472;DHT22;5283;48.876;8.962;2023-02-01T06:58:42;5.10;99.90
10472;DHT22;5283;48.876;8.962;2023-02-01T07:01:10;5.20;99.90
10472;DHT22;5283;48.876;8.962;2023-02-01T07:03:37;5.10;99.90
10472;DHT22;5283;48.876;8.962;2023-02-01T07:06:05;5.10;99.90
10472;DHT22;5283;48.876;8.962;2023-02-01T07:08:33;5.20;99.90
10472;DHT22;5283;48.876;8.962;2023-02-01T07:13:31;5.20;99.90
10472;DHT22;5283;48.876;8.962;2023-02-01T07:15:59;5.20;99.90
10472;DHT22;5283;48.876;8.962;2023-02-01T07:18:27;5.10;99.90
10472;DHT22;5283;48.876;8.962;2023-02-01T07:20:55;5.20;99.90
10472;DHT22;5283;48.876;8.962;2023-02-01T07:23:22;5.20;99.90
10472;DHT22;5283;48.876;8.962;2023-02-01T07:25:56;5.20;99.90
10472;DHT22;5283;48.876;8.962;2023-02-01T07:28:24;5.20;99.90
10472;DHT22;5283;48.876;8.962;2023-02-01T07:30:51;5.20;99.90
10472;DHT22;5283;48.876;8.962;2023-02-01T07:33:20;5.20;99.90
10472;DHT22;5283;48.876;8.962;2023-02-01T07:35:49;5.10;99.90
10472;DHT22;5283;48.876;8.962;2023-02-01T07:38:16;5.10;99.90
10472;DHT22;5283;48.876;8.962;2023-02-01T07:40:43;5.20;99.90
10472;DHT22;5283;48.876;8.962;2023-02-01T07:43:10;5.30;99.90
10472;DHT22;5283;48.876;8.962;2023-02-01T07:45:37;5.40;99.90
10472;DHT22;5283;48.876;8.962;2023-02-01T07:48:04;5.30;99.90
10472;DHT22;5283;48.876;8.962;2023-02-01T07:50:31;5.30;99.90
10472;DHT22;5283;48.876;8.962;2023-02-01T07:53:01;5.30;99.90
10472;DHT22;5283;48.876;8.962;2023-02-01T07:55:28;5.30;99.90
10472;DHT22;5283;48.876;8.962;2023-02-01T07:57:58;5.20;99.90
10472;DHT22;5283;48.876;8.962;2023-02-01T08:00:26;5.10;99.90
10472;DHT22;5283;48.876;8.962;2023-02-01T08:03:11;5.10;99.90
10472;DHT22;5283;48.876;8.962;2023-02-01T08:05:38;5.10;99.90
10472;DHT22;5283;48.876;8.962;2023-02-01T08:08:05;5.00;99.90
10472;DHT22;5283;48.876;8.962;2023-02-01T08:10:32;5.10;99.90
10472;DHT22;5283;48.876;8.962;2023-02-01T08:12:59;5.20;99.90
10472;DHT22;5283;48.876;8.962;2023-02-01T08:15:27;5.30;99.90
10472;DHT22;5283;48.876;8.962;2023-02-01T08:17:55;5.20;99.90
10472;DHT22;5283;48.876;8.962;2023-02-01T08:20:22;5.10;99.90
10472;DHT22;5283;48.876;8.962;2023-02-01T08:22:50;5.20;99.90
10472;DHT22;5283;48.876;8.962;2023-02-01T08:25:20;5.20;99.90
10472;DHT22;5283;48.876;8.962;2023-02-01T08:27:47;5.30;99.90
10472;DHT22;5283;48.876;8.962;2023-02-01T08:30:14;5.40;99.90
10472;DHT22;5283;48.876;8.962;2023-02-01T08:32:41;5.60;99.90
10472;DHT22;5283;48.876;8.962;2023-02-01T08:35:08;5.70;99.90
10472;DHT22;5283;48.876;8.962;2023-02-01T08:37:35;5.80;99.90
10472;DHT22;5283;48.876;8.962;2023-02-01T08:40:03;5.90;99.90
10472;DHT22;5283;48.876;8.962;2023-02-01T08:42:30;5.80;99.90
10472;DHT22;5283;48.876;8.962;2023-02-01T08:45:24;5.80;99.90
10472;DHT22;5283;48.876;8.962;2023-02-01T08:47:54;5.80;99.90
10472;DHT22;5283;48.876;8.962;2023-02-01T08:50:22;5.80;99.90
10472;DHT22;5283;48.876;8.962;2023-02-01T08:52:49;5.80;99.90
10472;DHT22;5283;48.876;8.962;2023-02-01T08:55:16;5.80;99.90
10472;DHT22;5283;48.876;8.962;2023-02-01T08:57:43;5.80;99.90
10472;DHT22;5283;48.876;8.962;2023-02-01T09:00:16;5.70;99.90
10472;DHT22;5283;48.876;8.962;2023-02-01T09:02:43;5.70;99.90
10472;DHT22;5283;48.876;8.962;2023-02-01T09:05:10;5.60;99.90
10472;DHT22;5283;48.876;8.962;2023-02-01T09:07:38;5.30;99.90
10472;DHT22;5283;48.876;8.962;2023-02-01T09:10:05;5.20;99.90
10472;DHT22;5283;48.876;8.962;2023-02-01T09:12:33;5.20;99.90
10472;DHT22;5283;48.876;8.962;2023-02-01T09:15:00;5.30;99.90
10472;DHT22;5283;48.876;8.962;2023-02-01T09:17:28;5.30;99.90
10472;DHT22;5283;48.876;8.962;2023-02-01T09:19:55;5.40;99.90
10472;DHT22;5283;48.876;8.962;2023-02-01T09:22:22;5.40;99.90
10472;DHT22;5283;48.876;8.962;2023-02-01T09:24:49;5.40;99.90
10472;DHT22;5283;48.876;8.962;2023-02-01T09:27:16;5.60;99.90
10472;DHT22;5283;48.876;8.962;2023-02-01T09:29:43;5.80;99.90
10472;DHT22;5283;48.876;8.962;2023-02-01T09:32:10;5.80;99.90
10472;DHT22;5283;48.876;8.962;2023-02-01T09:34:37;5.70;99.90
10472;DHT22;5283;48.876;8.962;2023-02-01T09:37:03;5.80;99.90
10472;DHT22;5283;48.876;8.962;2023-02-01T09:39:30;5.90;99.90
10472;DHT22;5283;48.876;8.962;2023-02-01T09:42:16;5.90;99.90
10472;DHT22;5283;48.876;8.962;2023-02-01T09:47:57;5.90;99.90
10472;DHT22;5283;48.876;8.962;2023-02-01T09:50:49;5.90;99.90
10472;DHT22;5283;48.876;8.962;2023-02-01T09:53:29;5.90;99.90
10472;DHT22;5283;48.876;8.962;2023-02-01T09:56:29;5.90;99.90
10472;DHT22;5283;48.876;8.962;2023-02-01T10:01:31;5.70;99.90
10472;DHT22;5283;48.876;8.962;2023-02-01T10:04:03;5.80;99.90
10472;DHT22;5283;48.876;8.962;2023-02-01T10:09:52;5.60;99.90
10472;DHT22;5283;48.876;8.962;2023-02-01T10:15:32;5.90;99.90
10472;DHT22;5283;48.876;8.962;2023-02-01T10:20:57;6.10;99.90
10472;DHT22;5283;48.876;8.962;2023-02-01T10:26:21;6.20;99.90
10472;DHT22;5283;48.876;8.962;2023-02-01T10:28:51;6.20;99.90
10472;DHT22;5283;48.876;8.962;2023-02-01T10:31:21;6.10;99.90
10472;DHT22;5283;48.876;8.962;2023-02-01T10:33:52;6.10;99.90
10472;DHT22;5283;48.876;8.962;2023-02-01T10:36:29;6.00;99.90
10472;DHT22;5283;48.876;8.962;2023-02-01T10:38:58;6.00;99.90
10472;DHT22;5283;48.876;8.962;2023-02-01T10:41:32;6.00;99.90
10472;DHT22;5283;48.876;8.962;2023-02-01T10:43:59;6.00;99.90
10472;DHT22;5283;48.876;8.962;2023-02-01T10:46:30;5.90;99.90
10472;DHT22;5283;48.876;8.962;2023-02-01T10:48:59;6.00;99.90
10472;DHT22;5283;48.876;8.962;2023-02-01T10:54:19;6.10;99.90
10472;DHT22;5283;48.876;8.962;2023-02-01T10:56:48;6.30;99.90
10472;DHT22;5283;48.876;8.962;2023-02-01T10:59:21;6.40;99.90
10472;DHT22;5283;48.876;8.962;2023-02-01T11:01:59;6.30;99.90
10472;DHT22;5283;48.876;8.962;2023-02-01T11:04:26;6.30;99.90
10472;DHT22;5283;48.876;8.962;2023-02-01T11:07:08;6.30;99.90
10472;DHT22;5283;48.876;8.962;2023-02-01T11:09:40;6.30;99.90
10472;DHT22;5283;48.876;8.962;2023-02-01T11:12:38;6.30;99.90
10472;DHT22;5283;48.876;8.962;2023-02-01T11:15:18;6.30;99.90
10472;DHT22;5283;48.876;8.962;2023-02-01T11:17:48;6.30;99.90
10472;DHT22;5283;48.876;8.962;2023-02-01T11:20:21;6.40;99.90
10472;DHT22;5283;48.876;8.962;2023-02-01T11:22:55;6.50;99.90
10472;DHT22;5283;48.876;8.962;2023-02-01T11:25:23;6.40;99.90
10472;DHT22;5283;48.876;8.962;2023-02-01T11:27:53;6.40;99.90
10472;DHT22;5283;48.876;8.962;2023-02-01T11:30:34;6.40;99.90
10472;DHT22;5283;48.876;8.962;2023-02-01T11:33:04;6.40;99.90
10472;DHT22;5283;48.876;8.962;2023-02-01T11:35:34;6.50;99.90
10472;DHT22;5283;48.876;8.962;2023-02-01T11:38:13;6.50;99.90
10472;DHT22;5283;48.876;8.962;2023-02-01T11:40:44;6.50;99.90
10472;DHT22;5283;48.876;8.962;2023-02-01T11:43:28;6.50;99.90
10472;DHT22;5283;48.876;8.962;2023-02-01T11:46:03;6.60;99.90
10472;DHT22;5283;48.876;8.962;2023-02-01T11:48:42;6.70;99.90
10472;DHT22;5283;48.876;8.962;2023-02-01T12:02:35;6.30;99.90
10472;DHT22;5283;48.876;8.962;2023-02-01T12:10:23;6.20;99.90
10472;DHT22;5283;48.876;8.962;2023-02-01T12:13:12;6.20;99.90
10472;DHT22;5283;48.876;8.962;2023-02-01T12:16:14;6.20;99.90
10472;DHT22;5283;48.876;8.962;2023-02-01T12:18:57;6.50;99.90
10472;DHT22;5283;48.876;8.962;2023-02-01T12:21:53;6.50;99.90
10472;DHT22;5283;48.876;8.962;2023-02-01T12:35:14;5.80;99.90
10472;DHT22;5283;48.876;8.962;2023-02-01T12:38:06;5.70;99.90
10472;DHT22;5283;48.876;8.962;2023-02-01T12:46:06;6.00;99.90
10472;DHT22;5283;48.876;8.962;2023-02-01T12:48:44;5.80;99.90
10472;DHT22;5283;48.876;8.962;2023-02-01T12:51:19;5.60;99.90
10472;DHT22;5283;48.876;8.962;2023-02-01T12:54:06;5.60;99.90
10472;DHT22;5283;48.876;8.962;2023-02-01T12:56:54;5.60;99.90
10472;DHT22;5283;48.876;8.962;2023-02-01T13:07:43;5.50;99.90
10472;DHT22;5283;48.876;8.962;2023-02-01T13:10:27;5.60;99.90
10472;DHT22;5283;48.876;8.962;2023-02-01T13:13:28;5.80;99.90
10472;DHT22;5283;48.876;8.962;2023-02-01T13:18:47;5.90;99.90
10472;DHT22;5283;48.876;8.962;2023-02-01T13:21:24;5.80;99.90
10472;DHT22;5283;48.876;8.962;2023-02-01T13:23:52;5.80;99.90
10472;DHT22;5283;48.876;8.962;2023-02-01T13:26:19;5.90;99.90
10472;DHT22;5283;48.876;8.962;2023-02-01T13:34:46;6.00;99.90
10472;DHT22;5283;48.876;8.962;2023-02-01T13:37:29;6.10;99.90
10472;DHT22;5283;48.876;8.962;2023-02-01T13:43:26;6.00;99.90
10472;DHT22;5283;48.876;8.962;2023-02-01T13:45:56;6.00;99.90
10472;DHT22;5283;48.876;8.962;2023-02-01T13:48:25;6.00;99.90
10472;DHT22;5283;48.876;8.962;2023-02-01T13:50:56;6.00;99.90
10472;DHT22;5283;48.876;8.962;2023-02-01T13:53:35;6.10;99.90
10472;DHT22;5283;48.876;8.962;2023-02-01T13:56:14;6.10;99.90
10472;DHT22;5283;48.876;8.962;2023-02-01T13:58:43;6.20;99.90
10472;DHT22;5283;48.876;8.962;2023-02-01T14:03:52;5.90;99.90
10472;DHT22;5283;48.876;8.962;2023-02-01T14:11:38;5.80;99.90
10472;DHT22;5283;48.876;8.962;2023-02-01T14:16:43;5.90;99.90
10472;DHT22;5283;48.876;8.962;2023-02-01T14:19:23;5.90;99.90
10472;DHT22;5283;48.876;8.962;2023-02-01T14:24:56;5.80;99.90
10472;DHT22;5283;48.876;8.962;2023-02-01T14:27:29;5.70;99.90
10472;DHT22;5283;48.876;8.962;2023-02-01T14:29:58;5.60;99.90
10472;DHT22;5283;48.876;8.962;2023-02-01T14:32:37;5.60;99.90
10472;DHT22;5283;48.876;8.962;2023-02-01T14:35:26;5.60;99.90
10472;DHT22;5283;48.876;8.962;2023-02-01T14:37:59;5.60;99.90
10472;DHT22;5283;48.876;8.962;2023-02-01T14:40:27;5.60;99.90
10472;DHT22;5283;48.876;8.962;2023-02-01T14:42:55;5.70;99.90
10472;DHT22;5283;48.876;8.962;2023-02-01T14:53:14;5.90;99.90
10472;DHT22;5283;48.876;8.962;2023-02-01T14:55:53;5.80;99.90
10472;DHT22;5283;48.876;8.962;2023-02-01T14:59:01;5.90;99.90
10472;DHT22;5283;48.876;8.962;2023-02-01T15:01:35;6.00;99.90
10472;DHT22;5283;48.876;8.962;2023-02-01T15:06:41;6.30;99.90
10472;DHT22;5283;48.876;8.962;2023-02-01T15:09:20;6.40;99.90
10472;DHT22;5283;48.876;8.962;2023-02-01T15:14:34;6.40;99.90
10472;DHT22;5283;48.876;8.962;2023-02-01T15:17:03;6.30;99.90
10472;DHT22;5283;48.876;8.962;2023-02-01T15:19:30;6.30;99.90
10472;DHT22;5283;48.876;8.962;2023-02-01T15:21:58;6.30;99.90
10472;DHT22;5283;48.876;8.962;2023-02-01T15:24:27;6.20;99.90
10472;DHT22;5283;48.876;8.962;2023-02-01T15:26:55;6.10;99.90
10472;DHT22;5283;48.876;8.962;2023-02-01T15:29:23;6.00;99.90
10472;DHT22;5283;48.876;8.962;2023-02-01T15:31:54;5.90;99.90
10472;DHT22;5283;48.876;8.962;2023-02-01T15:34:21;5.80;99.90
10472;DHT22;5283;48.876;8.962;2023-02-01T15:36:48;5.70;99.90
10472;DHT22;5283;48.876;8.962;2023-02-01T15:39:27;5.70;99.90
10472;DHT22;5283;48.876;8.962;2023-02-01T15:44:41;5.70;99.90
10472;DHT22;5283;48.876;8.962;2023-02-01T15:47:19;5.70;99.90
10472;DHT22;5283;48.876;8.962;2023-02-01T15:49:51;5.60;99.90
10472;DHT22;5283;48.876;8.962;2023-02-01T15:52:29;5.60;99.90
10472;DHT22;5283;48.876;8.962;2023-02-01T15:55:02;5.60;99.90
10472;DHT22;5283;48.876;8.962;2023-02-01T15:57:33;5.60;99.90
10472;DHT22;5283;48.876;8.962;2023-02-01T16:00:25;5.50;99.90
10472;DHT22;5283;48.876;8.962;2023-02-01T16:05:36;5.60;99.90
10472;DHT22;5283;48.876;8.962;2023-02-01T16:08:13;5.60;99.90
10472;DHT22;5283;48.876;8.962;2023-02-01T16:10:44;5.70;99.90
10472;DHT22;5283;48.876;8.962;2023-02-01T16:13:13;5.80;99.90
10472;DHT22;5283;48.876;8.962;2023-02-01T16:15:40;5.80;99.90
10472;DHT22;5283;48.876;8.962;2023-02-01T16:18:07;5.70;99.90
10472;DHT22;5283;48.876;8.962;2023-02-01T16:20:35;5.80;99.90
10472;DHT22;5283;48.876;8.962;2023-02-01T16:23:03;5.70;99.90
10472;DHT22;5283;48.876;8.962;2023-02-01T16:25:30;5.80;99.90
10472;DHT22;5283;48.876;8.962;2023-02-01T16:27:57;5.80;99.90
10472;DHT22;5283;48.876;8.962;2023-02-01T16:30:24;5.70;99.90
10472;DHT22;5283;48.876;8.962;2023-02-01T16:32:56;5.60;99.90
10472;DHT22;5283;48.876;8.962;2023-02-01T16:35:30;5.70;99.90
10472;DHT22;5283;48.876;8.962;2023-02-01T16:38:15;5.60;99.90
10472;DHT22;5283;48.876;8.962;2023-02-01T16:40:45;5.60;99.90
10472;DHT22;5283;48.876;8.962;2023-02-01T16:43:23;5.50;99.90
10472;DHT22;5283;48.876;8.962;2023-02-01T16:45:52;5.60;99.90
10472;DHT22;5283;48.876;8.962;2023-02-01T16:48:34;5.70;99.90
10472;DHT22;5283;48.876;8.962;2023-02-01T16:51:03;5.60;99.90
10472;DHT22;5283;48.876;8.962;2023-02-01T16:53:33;5.50;99.90
10472;DHT22;5283;48.876;8.962;2023-02-01T16:56:28;5.40;99.90
10472;DHT22;5283;48.876;8.962;2023-02-01T16:58:55;5.50;99.90
10472;DHT22;5283;48.876;8.962;2023-02-01T17:01:23;5.60;99.90
10472;DHT22;5283;48.876;8.962;2023-02-01T17:03:50;5.50;99.90
10472;DHT22;5283;48.876;8.962;2023-02-01T17:06:21;5.40;99.90
10472;DHT22;5283;48.876;8.962;2023-02-01T17:08:57;5.50;99.90
10472;DHT22;5283;48.876;8.962;2023-02-01T17:11:25;5.60;99.90
10472;DHT22;5283;48.876;8.962;2023-02-01T17:13:53;5.60;99.90
10472;DHT22;5283;48.876;8.962;2023-02-01T17:16:26;5.60;99.90
10472;DHT22;5283;48.876;8.962;2023-02-01T17:19:04;5.60;99.90
10472;DHT22;5283;48.876;8.962;2023-02-01T17:21:43;5.70;99.90
10472;DHT22;5283;48.876;8.962;2023-02-01T17:24:15;5.70;99.90
10472;DHT22;5283;48.876;8.962;2023-02-01T17:26:43;5.70;99.90
10472;DHT22;5283;48.876;8.962;2023-02-01T17:29:10;5.80;99.90
10472;DHT22;5283;48.876;8.962;2023-02-01T17:31:43;5.70;99.90
10472;DHT22;5283;48.876;8.962;2023-02-01T17:34:11;5.60;99.90
10472;DHT22;5283;48.876;8.962;2023-02-01T17:36:41;5.60;99.90
10472;DHT22;5283;48.876;8.962;2023-02-01T17:39:09;5.50;99.90
10472;DHT22;5283;48.876;8.962;2023-02-01T17:41:36;5.40;99.90
10472;DHT22;5283;48.876;8.962;2023-02-01T17:44:03;5.40;99.90
10472;DHT22;5283;48.876;8.962;2023-02-01T17:46:31;5.40;99.90
10472;DHT22;5283;48.876;8.962;2023-02-01T17:48:57;5.40;99.90
10472;DHT22;5283;48.876;8.962;2023-02-01T17:51:26;5.50;99.90
10472;DHT22;5283;48.876;8.962;2023-02-01T17:53:54;5.40;99.90
10472;DHT22;5283;48.876;8.962;2023-02-01T17:56:23;5.50;99.90
10472;DHT22;5283;48.876;8.962;2023-02-01T17:58:50;5.40;99.90
10472;DHT22;5283;48.876;8.962;2023-02-01T18:01:19;5.40;99.90
10472;DHT22;5283;48.876;8.962;2023-02-01T18:03:47;5.50;99.90
10472;DHT22;5283;48.876;8.962;2023-02-01T18:06:16;5.50;99.90
10472;DHT22;5283;48.876;8.962;2023-02-01T18:08:43;5.50;99.90
10472;DHT22;5283;48.876;8.962;2023-02-01T18:11:18;5.50;99.90
10472;DHT22;5283;48.876;8.962;2023-02-01T18:13:47;5.50;99.90
10472;DHT22;5283;48.876;8.962;2023-02-01T18:16:25;5.60;99.90
10472;DHT22;5283;48.876;8.962;2023-02-01T18:18:52;5.50;99.90
10472;DHT22;5283;48.876;8.962;2023-02-01T18:21:21;5.40;99.90
10472;DHT22;5283;48.876;8.962;2023-02-01T18:23:49;5.50;99.90
10472;DHT22;5283;48.876;8.962;2023-02-01T18:26:17;5.50;99.90
10472;DHT22;5283;48.876;8.962;2023-02-01T18:28:44;5.50;99.90
10472;DHT22;5283;48.876;8.962;2023-02-01T18:31:30;5.50;99.90
10472;DHT22;5283;48.876;8.962;2023-02-01T18:33:58;5.60;99.90
10472;DHT22;5283;48.876;8.962;2023-02-01T18:36:26;5.60;99.90
10472;DHT22;5283;48.876;8.962;2023-02-01T18:38:53;5.70;99.90
10472;DHT22;5283;48.876;8.962;2023-02-01T18:41:22;5.60;99.90
10472;DHT22;5283;48.876;8.962;2023-02-01T18:43:50;5.70;99.90
10472;DHT22;5283;48.876;8.962;2023-02-01T18:46:18;5.70;99.90
10472;DHT22;5283;48.876;8.962;2023-02-01T18:48:45;5.70;99.90
10472;DHT22;5283;48.876;8.962;2023-02-01T18:51:15;5.80;99.90
10472;DHT22;5283;48.876;8.962;2023-02-01T18:53:42;5.70;99.90
10472;DHT22;5283;48.876;8.962;2023-02-01T18:56:11;5.80;99.90